Time;durP1;ratioP1;P1;durP2;ratioP2;P2;SDS_P1;SDS_P2;PMS_P1;PMS_P2;Temp;Humidity;BMP_temperature;BMP_pressure;BME280_temperature;BME280_humidity;BME280_pressure;Samples;Min_cycle;Max_cycle;Signal;HPM_P1;HPM_P2
2021/12/07 00:00:48;;;;;;;40.45;19.95;;;2.10;99.90;;;;;;5117288;28;20027;-89
2021/12/07 00:03:14;;;;;;;40.75;19.48;;;1.90;99.90;;;;;;5117394;28;20051;-89
2021/12/07 00:05:40;;;;;;;37.80;18.10;;;2.10;99.90;;;;;;5117135;28;20031;-89
2021/12/07 00:08:05;;;;;;;39.67;19.42;;;1.60;99.90;;;;;;5117566;28;20128;-89
2021/12/07 00:10:32;;;;;;;47.42;21.48;;;1.80;99.90;;;;;;5116963;28;20032;-89
2021/12/07 00:13:00;;;;;;;50.30;22.88;;;2.10;99.90;;;;;;5134742;28;20027;-89
2021/12/07 00:15:28;;;;;;;55.95;22.67;;;1.40;99.90;;;;;;5134408;28;20042;-89
2021/12/07 00:17:54;;;;;;;50.60;20.52;;;1.30;99.90;;;;;;5152103;28;20040;-89
2021/12/07 00:20:22;;;;;;;57.60;23.05;;;1.40;99.90;;;;;;5133919;28;20069;-89
2021/12/07 00:22:55;;;;;;;44.88;22.17;;;2.30;99.90;;;;;;5134181;28;20058;-89
2021/12/07 00:25:21;;;;;;;50.38;21.50;;;1.70;99.90;;;;;;5133845;28;20053;-88
2021/12/07 00:27:49;;;;;;;46.25;20.63;;;2.10;99.90;;;;;;5116781;28;20039;-89
2021/12/07 00:30:16;;;;;;;54.65;21.98;;;2.10;99.90;;;;;;5134289;28;20046;-89
2021/12/07 00:32:50;;;;;;;47.58;19.73;;;1.50;99.90;;;;;;5134766;28;20092;-89
2021/12/07 00:35:33;;;;;;;38.28;17.90;;;1.60;99.90;;;;;;5134529;28;20030;-90
2021/12/07 00:38:05;;;;;;;59.42;23.58;;;1.40;99.90;;;;;;5153255;28;20024;-90
2021/12/07 00:40:34;;;;;;;61.20;25.77;;;1.80;99.90;;;;;;5134578;28;20028;-89
2021/12/07 00:43:10;;;;;;;56.20;22.85;;;1.40;99.90;;;;;;5116843;28;20043;-91
2021/12/07 00:45:41;;;;;;;49.63;22.15;;;1.40;99.90;;;;;;5116664;28;20061;-89
2021/12/07 00:48:07;;;;;;;59.67;25.33;;;1.60;99.90;;;;;;5133198;28;20630;-87
2021/12/07 00:50:37;;;;;;;51.35;22.35;;;1.30;99.90;;;;;;5116127;28;20072;-88
2021/12/07 00:53:08;;;;;;;62.90;22.42;;;1.30;99.90;;;;;;5108862;28;20067;-88
2021/12/07 00:56:04;;;;;;;53.17;22.17;;;1.40;99.90;;;;;;5102851;28;20042;-88
2021/12/07 00:58:31;;;;;;;58.67;22.10;;;1.80;99.90;;;;;;5094048;28;20035;-88
2021/12/07 01:01:00;;;;;;;65.68;23.80;;;1.30;99.90;;;;;;5102419;28;20032;-89
2021/12/07 01:03:27;;;;;;;70.18;24.40;;;1.50;99.90;;;;;;5119787;28;20054;-90
2021/12/07 01:06:05;;;;;;;62.28;23.58;;;1.60;99.90;;;;;;5118909;28;20453;-89
2021/12/07 01:25:10;;;;;;;59.88;21.95;;;1.30;99.90;;;;;;5118934;28;20031;-88
2021/12/07 01:27:37;;;;;;;50.63;19.75;;;0.90;99.90;;;;;;5101921;28;20078;-88
2021/12/07 01:59:45;;;;;;;76.28;23.25;;;1.30;99.90;;;;;;5118923;28;20040;-89
2021/12/07 02:02:15;;;;;;;75.70;23.38;;;1.10;99.90;;;;;;5101734;28;20377;-89
2021/12/07 02:04:48;;;;;;;77.43;25.50;;;1.30;99.90;;;;;;5117861;28;20024;-90
2021/12/07 02:07:14;;;;;;;55.15;20.98;;;0.40;99.90;;;;;;5102235;28;20095;-89
2021/12/07 02:09:48;;;;;;;60.42;21.73;;;0.50;99.90;;;;;;5101891;28;20091;-89
2021/12/07 02:12:17;;;;;;;63.97;22.17;;;0.70;99.90;;;;;;5118934;28;20028;-88
2021/12/07 02:14:43;;;;;;;60.67;20.50;;;0.50;99.90;;;;;;5101417;28;20048;-88
2021/12/07 02:17:16;;;;;;;69.93;22.98;;;1.20;99.90;;;;;;5101723;28;20040;-88
2021/12/07 02:19:43;;;;;;;69.47;23.40;;;0.80;99.90;;;;;;5101594;28;20042;-88
2021/12/07 02:22:11;;;;;;;;;;;0.50;99.90;;;;;;5118999;28;20115;-88
2021/12/07 02:24:38;;;;;;;74.78;22.58;;;0.30;99.90;;;;;;5101057;28;19924;-89
2021/12/07 02:27:04;;;;;;;72.57;23.90;;;0.90;99.90;;;;;;5101188;28;20034;-89
2021/12/07 02:29:32;;;;;;;;;;;0.50;99.90;;;;;;5101853;28;20092;-89
2021/12/07 02:32:06;;;;;;;78.38;23.48;;;0.60;99.90;;;;;;5101129;28;20200;-88
2021/12/07 02:34:35;;;;;;;52.72;20.10;;;1.10;99.90;;;;;;5101206;28;20047;-89
2021/12/07 02:37:01;;;;;;;55.80;20.15;;;0.60;99.90;;;;;;5101016;28;20066;-89
2021/12/07 02:39:35;;;;;;;51.40;20.40;;;0.60;99.90;;;;;;5101016;28;20091;-89
2021/12/07 02:42:04;;;;;;;51.63;18.25;;;1.10;99.90;;;;;;5100832;28;20059;-90
2021/12/07 02:44:35;;;;;;;52.60;19.27;;;0.60;99.90;;;;;;5101102;28;20031;-89
2021/12/07 02:47:01;;;;;;;50.25;19.63;;;2.00;99.90;;;;;;5101061;28;20031;-89
2021/12/07 02:49:28;;;;;;;52.70;20.33;;;0.60;99.90;;;;;;5101150;28;20055;-88
2021/12/07 02:52:03;;;;;;;58.40;22.00;;;0.60;99.90;;;;;;5101346;28;20119;-88
2021/12/07 02:54:32;;;;;;;78.15;26.02;;;0.90;99.90;;;;;;5100932;28;20031;-88
2021/12/07 02:56:58;;;;;;;57.75;22.13;;;0.60;99.90;;;;;;5100657;28;20047;-89
2021/12/07 02:59:26;;;;;;;62.33;21.52;;;0.60;99.90;;;;;;5100804;28;20028;-88
2021/12/07 03:02:09;;;;;;;71.78;21.83;;;0.90;99.90;;;;;;5100060;28;20056;-87
2021/12/07 03:04:42;;;;;;;71.82;24.73;;;0.50;99.90;;;;;;5100321;28;20028;-88
2021/12/07 03:07:38;;;;;;;59.50;22.80;;;1.10;99.90;;;;;;5100344;28;20078;-88
2021/12/07 03:26:25;;;;;;;69.07;25.20;;;0.80;99.90;;;;;;5116965;28;20039;-88
2021/12/07 03:28:53;;;;;;;69.45;25.17;;;1.60;99.90;;;;;;5100201;28;20058;-88
2021/12/07 03:31:26;;;;;;;78.53;26.40;;;0.70;99.90;;;;;;5099585;28;20032;-89
2021/12/07 03:33:53;;;;;;;72.85;26.40;;;0.60;99.90;;;;;;5100111;28;20039;-88
2021/12/07 03:36:22;;;;;;;80.32;27.48;;;1.50;99.90;;;;;;5099475;28;20031;-88
2021/12/07 03:38:51;;;;;;;72.63;24.58;;;1.00;99.90;;;;;;5116378;28;20027;-87
2021/12/07 03:41:19;;;;;;;79.82;25.77;;;1.00;99.90;;;;;;5116069;28;20101;-88
2021/12/07 03:43:45;;;;;;;83.38;27.15;;;0.50;99.90;;;;;;5116602;28;20034;-88
2021/12/07 03:46:11;;;;;;;85.00;27.63;;;0.60;99.90;;;;;;5116677;28;20031;-87
2021/12/07 03:48:37;;;;;;;77.05;25.00;;;0.60;99.90;;;;;;5116825;28;20039;-87
2021/12/07 03:51:03;;;;;;;;;;;0.40;99.90;;;;;;5116977;28;20034;-87
2021/12/07 03:53:29;;;;;;;88.60;28.13;;;1.00;99.90;;;;;;5099520;28;19908;-87
2021/12/07 03:55:57;;;;;;;88.05;25.80;;;0.60;99.90;;;;;;5116740;28;20032;-88
2021/12/07 03:58:23;;;;;;;86.22;27.88;;;0.60;99.90;;;;;;5116645;28;20031;-87
2021/12/07 04:00:50;;;;;;;100.57;29.65;;;0.70;99.90;;;;;;5116333;28;20035;-87
2021/12/07 04:03:17;;;;;;;;;;;0.80;99.90;;;;;;5116689;28;20032;-87
2021/12/07 04:05:53;;;;;;;;;;;0.70;99.90;;;;;;5099779;28;19977;-87
2021/12/07 04:08:22;;;;;;;79.38;23.75;;;0.70;99.90;;;;;;5116179;28;19970;-87
2021/12/07 04:10:52;;;;;;;82.18;26.48;;;1.10;99.90;;;;;;5099743;28;20075;-89
2021/12/07 04:13:18;;;;;;;75.53;27.38;;;0.90;99.90;;;;;;5099416;28;20050;-87
2021/12/07 04:15:44;;;;;;;96.63;26.92;;;0.70;99.90;;;;;;5099411;28;20023;-87
2021/12/07 04:18:10;;;;;;;88.40;28.05;;;0.60;99.90;;;;;;5116189;28;20086;-87
2021/12/07 04:20:36;;;;;;;;;;;0.50;99.90;;;;;;5099906;28;20023;-88
2021/12/07 04:23:04;;;;;;;99.45;26.60;;;0.70;99.90;;;;;;5099572;28;19929;-88
2021/12/07 04:25:30;;;;;;;103.15;27.92;;;0.80;99.90;;;;;;5116044;28;20039;-87
2021/12/07 04:27:56;;;;;;;105.57;30.67;;;1.40;99.90;;;;;;5100389;28;20028;-86
2021/12/07 04:30:25;;;;;;;98.90;28.00;;;0.40;99.90;;;;;;5119556;28;20039;-87
2021/12/07 04:32:52;;;;;;;75.75;22.27;;;1.30;99.90;;;;;;5102871;28;20038;-87
2021/12/07 04:35:19;;;;;;;87.45;26.48;;;0.30;99.90;;;;;;5120033;28;20100;-87
2021/12/07 04:37:45;;;;;;;100.32;26.65;;;0.40;99.90;;;;;;5103090;28;20036;-87
2021/12/07 04:40:16;;;;;;;89.38;26.70;;;0.40;99.90;;;;;;5119678;28;20040;-87
2021/12/07 04:42:48;;;;;;;85.50;25.25;;;0.70;99.90;;;;;;5102905;28;20032;-87
2021/12/07 04:45:32;;;;;;;94.47;26.00;;;-0.10;99.90;;;;;;5120258;28;20062;-87
2021/12/07 04:59:12;;;;;;;99.50;26.20;;;0.30;99.90;;;;;;5138693;28;20031;-87
2021/12/07 05:01:37;;;;;;;;;;;0.30;99.90;;;;;;5122066;28;20032;-87
2021/12/07 05:04:11;;;;;;;84.35;23.90;;;0.30;99.90;;;;;;5121306;28;19931;-87
2021/12/07 05:06:44;;;;;;;93.30;27.25;;;1.00;99.90;;;;;;5103515;28;20039;-86
2021/12/07 05:09:33;;;;;;;100.65;25.50;;;0.30;99.90;;;;;;5137570;28;20028;-86
2021/12/07 05:14:30;;;;;;;95.90;26.25;;;0.30;99.90;;;;;;5137120;28;20032;-86
2021/12/07 05:17:14;;;;;;;95.32;25.48;;;0.30;99.90;;;;;;5102353;28;20038;-87
2021/12/07 05:38:56;;;;;;;113.75;26.20;;;0.20;99.90;;;;;;5118965;28;20045;-88
2021/12/07 05:41:24;;;;;;;100.65;24.75;;;0.20;99.90;;;;;;5093970;28;20044;-88
2021/12/07 05:43:50;;;;;;;89.07;22.73;;;0.80;99.90;;;;;;5081360;28;20047;-88
2021/12/07 05:46:19;;;;;;;94.63;25.17;;;0.20;99.90;;;;;;5098276;28;20024;-88
2021/12/07 05:48:45;;;;;;;98.00;23.48;;;0.10;99.90;;;;;;5081257;28;20027;-88
2021/12/07 05:51:10;;;;;;;82.25;23.05;;;0.10;99.90;;;;;;5115600;28;20171;-88
2021/12/07 05:53:36;;;;;;;101.50;25.10;;;0.10;99.90;;;;;;5081379;28;20028;-88
2021/12/07 05:56:03;;;;;;;81.65;24.08;;;0.10;99.90;;;;;;5098205;28;20342;-88
2021/12/07 05:58:31;;;;;;;87.93;21.45;;;0.10;99.90;;;;;;5115794;28;20072;-88
2021/12/07 06:00:58;;;;;;;108.28;24.95;;;0.30;99.90;;;;;;5098234;28;20032;-88
2021/12/07 06:03:27;;;;;;;100.72;24.88;;;0.80;99.90;;;;;;5115430;28;20077;-88
2021/12/07 06:05:54;;;;;;;88.03;23.48;;;0.10;99.90;;;;;;5097935;28;20047;-88
2021/12/07 06:08:21;;;;;;;94.65;24.00;;;0.00;99.90;;;;;;5097917;28;20060;-88
2021/12/07 06:10:47;;;;;;;103.93;23.48;;;0.10;99.90;;;;;;5115402;28;20032;-88
2021/12/07 06:13:14;;;;;;;84.72;22.50;;;0.20;99.90;;;;;;5080665;28;20108;-88
2021/12/07 06:15:44;;;;;;;98.22;23.42;;;0.30;99.90;;;;;;5097523;28;20020;-88
2021/12/07 06:18:09;;;;;;;97.00;23.88;;;0.30;99.90;;;;;;5097389;28;20162;-88
2021/12/07 06:20:41;;;;;;;96.50;22.85;;;0.20;99.90;;;;;;5115113;28;20020;-89
2021/12/07 06:23:07;;;;;;;80.93;21.65;;;0.20;99.90;;;;;;5097709;28;20089;-88
2021/12/07 06:25:32;;;;;;;;;;;0.20;99.90;;;;;;5081500;28;20031;-88
2021/12/07 06:27:58;;;;;;;70.63;18.70;;;0.10;99.90;;;;;;5081014;28;19923;-88
2021/12/07 06:30:24;;;;;;;73.95;19.92;;;0.20;99.90;;;;;;5096433;28;20043;-87
2021/12/07 06:32:57;;;;;;;77.20;20.98;;;0.10;99.90;;;;;;5097670;28;20032;-88
2021/12/07 06:35:22;;;;;;;79.78;21.50;;;0.10;99.90;;;;;;5097627;28;20159;-87
2021/12/07 06:37:48;;;;;;;72.22;19.90;;;0.90;99.90;;;;;;5080835;28;20044;-89
2021/12/07 06:43:05;;;;;;;78.15;19.85;;;0.70;99.90;;;;;;5113840;28;20042;-88
2021/12/07 06:45:31;;;;;;;84.15;20.85;;;0.20;99.90;;;;;;5114354;28;20058;-88
2021/12/07 06:47:57;;;;;;;72.80;20.88;;;0.00;99.90;;;;;;5096406;28;20087;-88
2021/12/07 06:50:24;;;;;;;92.45;21.35;;;-0.20;99.90;;;;;;5096010;28;20039;-87
2021/12/07 06:52:52;;;;;;;72.68;20.95;;;0.20;99.90;;;;;;5114189;28;20107;-88
2021/12/07 06:55:18;;;;;;;76.40;20.17;;;0.10;99.90;;;;;;5113879;28;20052;-88
2021/12/07 06:57:44;;;;;;;79.40;21.23;;;0.60;99.90;;;;;;5096379;28;20038;-88
2021/12/07 07:00:11;;;;;;;81.88;21.23;;;0.00;99.90;;;;;;5096020;28;20031;-88
2021/12/07 07:02:40;;;;;;;85.32;23.38;;;0.20;99.90;;;;;;5095953;28;20032;-87
2021/12/07 07:05:06;;;;;;;97.90;21.02;;;0.70;99.90;;;;;;5079361;28;20047;-88
2021/12/07 07:07:34;;;;;;;86.78;23.13;;;0.10;99.90;;;;;;5112757;28;20091;-87
2021/12/07 07:10:00;;;;;;;91.85;20.67;;;0.00;99.90;;;;;;5079092;28;20055;-86
2021/12/07 07:12:26;;;;;;;88.70;22.25;;;0.00;99.90;;;;;;5109002;28;20029;-86
2021/12/07 07:14:52;;;;;;;105.22;23.48;;;-0.10;99.90;;;;;;5090134;28;20046;-87
2021/12/07 07:17:18;;;;;;;;;;;-0.10;99.90;;;;;;5113701;28;20028;-86
2021/12/07 07:19:44;;;;;;;94.72;22.08;;;-0.10;99.90;;;;;;5078808;28;19972;-86
2021/12/07 07:22:10;;;;;;;;;;;-0.20;99.90;;;;;;5079331;28;20050;-86
2021/12/07 07:24:37;;;;;;;102.45;24.20;;;0.50;99.90;;;;;;5079267;28;19908;-88
2021/12/07 07:27:03;;;;;;;75.32;19.90;;;-0.10;99.90;;;;;;5113057;28;20071;-86
2021/12/07 07:29:29;;;;;;;101.07;21.88;;;-0.10;99.90;;;;;;5095478;28;20036;-87
2021/12/07 07:31:57;;;;;;;102.65;24.25;;;0.10;99.90;;;;;;5113159;28;20110;-87
2021/12/07 07:34:23;;;;;;;107.05;22.42;;;0.10;99.90;;;;;;5113178;28;20032;-87
2021/12/07 07:36:49;;;;;;;91.10;23.77;;;0.00;99.90;;;;;;5095735;28;20085;-88
2021/12/07 07:39:14;;;;;;;95.10;22.80;;;0.00;99.90;;;;;;5078642;28;20032;-86
2021/12/07 07:41:40;;;;;;;103.35;21.10;;;-0.10;99.90;;;;;;5098209;28;20073;-86
2021/12/07 07:44:08;;;;;;;117.13;24.65;;;-0.10;99.90;;;;;;5112445;28;20112;-86
2021/12/07 07:46:34;;;;;;;98.25;23.15;;;-0.10;99.90;;;;;;5112460;28;20052;-86
2021/12/07 07:49:02;;;;;;;93.28;21.55;;;0.10;99.90;;;;;;5095668;28;20058;-86
2021/12/07 07:51:28;;;;;;;78.95;18.67;;;0.30;99.90;;;;;;5112458;28;20055;-86
2021/12/07 07:53:54;;;;;;;93.97;23.63;;;0.20;99.90;;;;;;5095742;28;20028;-86
2021/12/07 07:56:21;;;;;;;84.75;21.30;;;0.10;99.90;;;;;;5113234;28;20035;-86
2021/12/07 07:58:46;;;;;;;88.32;21.67;;;0.10;99.90;;;;;;5113149;28;20077;-86
2021/12/07 08:01:12;;;;;;;93.60;21.67;;;0.20;99.90;;;;;;5111555;28;20036;-87
2021/12/07 08:03:38;;;;;;;96.07;23.15;;;0.30;99.90;;;;;;5108468;28;20032;-86
2021/12/07 08:06:04;;;;;;;68.75;18.98;;;0.20;99.90;;;;;;5104170;28;20021;-86
2021/12/07 08:08:32;;;;;;;79.57;19.15;;;0.50;99.90;;;;;;5099371;28;20032;-86
2021/12/07 08:10:58;;;;;;;95.95;23.13;;;0.20;99.90;;;;;;5102609;28;20047;-86
2021/12/07 08:13:23;;;;;;;88.57;22.13;;;0.70;99.90;;;;;;5095173;28;20029;-86
2021/12/07 08:15:50;;;;;;;66.47;18.17;;;0.20;99.90;;;;;;5095589;28;20043;-87
2021/12/07 08:18:17;;;;;;;80.90;19.92;;;0.20;99.90;;;;;;5109208;28;20029;-87
2021/12/07 08:20:52;;;;;;;84.35;22.42;;;0.30;99.90;;;;;;5094409;28;20041;-88
2021/12/07 08:23:17;;;;;;;76.55;21.45;;;0.30;99.90;;;;;;5094088;28;20035;-87
2021/12/07 08:25:45;;;;;;;81.97;20.23;;;0.40;99.90;;;;;;5115372;28;20096;-86
2021/12/07 08:28:13;;;;;;;95.63;22.92;;;0.90;99.90;;;;;;5113920;28;20036;-87
2021/12/07 08:30:43;;;;;;;81.63;21.17;;;0.40;99.90;;;;;;5091035;28;20044;-87
2021/12/07 08:33:12;;;;;;;75.25;18.20;;;0.30;99.90;;;;;;5103058;28;20045;-87
2021/12/07 08:35:40;;;;;;;74.82;19.63;;;0.60;99.90;;;;;;5105992;28;20059;-87
2021/12/07 08:38:06;;;;;;;78.35;21.17;;;0.40;99.90;;;;;;5098448;28;20043;-87
2021/12/07 08:40:39;;;;;;;65.80;19.77;;;0.40;99.90;;;;;;5094708;28;20036;-87
2021/12/07 08:43:06;;;;;;;70.63;19.92;;;0.00;99.90;;;;;;5113527;28;20119;-87
2021/12/07 08:45:35;;;;;;;75.95;20.30;;;0.70;99.90;;;;;;5115664;28;20067;-87
2021/12/07 08:48:00;;;;;;;86.05;21.27;;;0.50;99.90;;;;;;5118975;28;20023;-86
2021/12/07 08:50:29;;;;;;;70.55;18.33;;;0.50;99.90;;;;;;5101460;28;20120;-87
2021/12/07 08:53:02;;;;;;;70.32;18.77;;;0.60;99.90;;;;;;5101399;28;20052;-87
2021/12/07 09:01:06;;;;;;;68.05;20.27;;;0.80;99.90;;;;;;5115962;28;20061;-87
2021/12/07 09:03:35;;;;;;;78.13;20.25;;;0.80;99.90;;;;;;5116568;28;20039;-87
2021/12/07 09:06:01;;;;;;;64.88;18.83;;;1.20;99.90;;;;;;5082549;28;20032;-87
2021/12/07 09:08:27;;;;;;;71.70;20.52;;;1.00;99.90;;;;;;5082480;28;20048;-87
2021/12/07 09:10:54;;;;;;;76.50;20.08;;;1.40;99.90;;;;;;5098773;28;20078;-87
2021/12/07 09:13:29;;;;;;;64.22;19.55;;;1.30;99.90;;;;;;5098776;28;20035;-86
2021/12/07 09:16:01;;;;;;;70.60;21.13;;;0.80;99.90;;;;;;5099352;28;20044;-86
2021/12/07 09:18:30;;;;;;;58.20;18.30;;;0.70;99.90;;;;;;5099919;28;20028;-87
2021/12/07 09:20:57;;;;;;;71.68;20.10;;;1.50;99.90;;;;;;5099788;28;20059;-88
2021/12/07 09:23:24;;;;;;;84.70;20.83;;;1.00;99.90;;;;;;5083890;28;20016;-89
2021/12/07 09:25:53;;;;;;;71.85;21.83;;;0.90;99.90;;;;;;5100128;28;20032;-89
2021/12/07 09:28:19;;;;;;;76.75;20.73;;;1.20;99.90;;;;;;5082088;28;20044;-88
2021/12/07 09:30:51;;;;;;;65.28;20.23;;;1.10;99.90;;;;;;5098297;28;20028;-88
2021/12/07 09:33:20;;;;;;;65.05;19.55;;;1.10;99.90;;;;;;5098654;28;20032;-86
2021/12/07 09:35:46;;;;;;;72.53;21.10;;;1.20;99.90;;;;;;5098241;28;20043;-86
2021/12/07 09:38:17;;;;;;;62.22;18.67;;;1.20;99.90;;;;;;5098235;28;20115;-87
2021/12/07 09:40:50;;;;;;;65.88;19.58;;;1.60;99.90;;;;;;5097935;28;20269;-84
2021/12/07 09:43:16;;;;;;;57.65;17.20;;;1.50;99.90;;;;;;5098654;28;20032;-83
2021/12/07 09:45:45;;;;;;;;;;;2.00;99.90;;;;;;5116445;28;20032;-83
2021/12/07 09:48:14;;;;;;;55.22;17.50;;;2.30;99.90;;;;;;5115618;28;19962;-86
2021/12/07 09:50:45;;;;;;;57.40;19.35;;;1.80;99.90;;;;;;5115173;28;20083;-86
2021/12/07 09:53:33;;;;;;;53.67;18.65;;;1.90;99.90;;;;;;5115767;28;20024;-87
2021/12/07 09:56:00;;;;;;;61.67;18.17;;;1.20;99.90;;;;;;5097995;28;20052;-88
2021/12/07 09:58:27;;;;;;;54.15;17.65;;;1.90;99.90;;;;;;5081376;28;20306;-88
2021/12/07 10:00:53;;;;;;;57.20;17.73;;;2.20;99.90;;;;;;5113155;28;20050;-88
2021/12/07 10:03:21;;;;;;;61.30;18.98;;;2.00;99.90;;;;;;5094264;28;20094;-89
2021/12/07 10:05:50;;;;;;;50.92;17.38;;;2.10;99.90;;;;;;5118512;28;20081;-87
2021/12/07 10:08:16;;;;;;;48.42;15.90;;;2.10;99.90;;;;;;5101056;28;20027;-86
2021/12/07 10:10:46;;;;;;;52.53;16.27;;;2.90;99.90;;;;;;5117952;28;20035;-85
2021/12/07 10:13:14;;;;;;;52.35;15.82;;;2.30;99.90;;;;;;5117738;28;20040;-85
2021/12/07 10:15:53;;;;;;;45.40;15.82;;;2.40;99.90;;;;;;5135689;28;20042;-86
2021/12/07 10:18:23;;;;;;;;;;;2.50;99.90;;;;;;5118455;28;20035;-88
2021/12/07 10:20:59;;;;;;;53.17;15.10;;;2.90;99.90;;;;;;5117290;28;19914;-88
2021/12/07 10:23:41;;;;;;;45.03;14.87;;;3.20;99.90;;;;;;5100803;28;20055;-86
2021/12/07 10:26:16;;;;;;;46.53;14.38;;;3.70;99.90;;;;;;5116889;28;20074;-87
2021/12/07 10:29:17;;;;;;;46.08;14.85;;;3.10;99.90;;;;;;5117191;28;20086;-87
2021/12/07 10:31:46;;;;;;;39.85;12.68;;;3.20;99.90;;;;;;5082119;28;20308;-87
2021/12/07 10:34:17;;;;;;;47.97;14.18;;;2.90;99.90;;;;;;5100086;28;20074;-87
2021/12/07 10:36:55;;;;;;;34.80;12.38;;;3.20;99.90;;;;;;5116953;28;20027;-88
2021/12/07 10:39:34;;;;;;;38.45;12.80;;;3.00;99.90;;;;;;5117170;28;20043;-87
2021/12/07 10:42:03;;;;;;;31.50;12.75;;;3.00;99.90;;;;;;5098559;28;20050;-87
2021/12/07 10:44:40;;;;;;;33.70;12.32;;;3.00;99.90;;;;;;5116136;28;20055;-87
2021/12/07 10:47:12;;;;;;;29.60;10.90;;;3.50;99.90;;;;;;5115423;28;20040;-86
2021/12/07 10:49:49;;;;;;;37.53;12.23;;;3.20;99.90;;;;;;5115507;28;20032;-86
2021/12/07 10:52:15;;;;;;;38.17;13.30;;;3.20;99.90;;;;;;5115553;28;20066;-85
2021/12/07 10:54:56;;;;;;;32.30;11.43;;;3.20;99.90;;;;;;5115090;28;20048;-85
2021/12/07 10:57:24;;;;;;;46.30;13.07;;;3.40;99.90;;;;;;5115317;28;20042;-87
2021/12/07 10:59:58;;;;;;;34.75;13.45;;;3.30;99.90;;;;;;5098881;28;20054;-87
2021/12/07 11:02:30;;;;;;;;;;;4.20;99.90;;;;;;5116496;28;20036;-87
2021/12/07 11:04:57;;;;;;;38.28;10.68;;;3.40;99.90;;;;;;5115590;28;19908;-86
2021/12/07 11:07:26;;;;;;;34.45;12.00;;;3.50;99.90;;;;;;5098527;28;20034;-87
2021/12/07 11:10:19;;;;;;;30.08;9.82;;;3.80;99.90;;;;;;5098433;28;20039;-87
2021/12/07 11:13:01;;;;;;;31.80;10.20;;;3.50;99.90;;;;;;5085682;28;20056;-87
2021/12/07 11:15:34;;;;;;;32.95;9.38;;;3.50;99.90;;;;;;5078302;28;20115;-87
2021/12/07 11:18:11;;;;;;;22.58;9.63;;;3.70;99.90;;;;;;5078429;28;20390;-87
2021/12/07 11:20:41;;;;;;;29.02;10.52;;;3.70;99.90;;;;;;5095049;28;20055;-87
2021/12/07 11:23:16;;;;;;;25.17;9.43;;;3.70;99.90;;;;;;5095170;28;20032;-87
2021/12/07 11:29:39;;;;;;;24.92;7.97;;;3.80;99.90;;;;;;5078255;28;20042;-87
2021/12/07 11:31:50;;;;;;;26.70;9.35;;;3.90;99.90;;;;;;5112394;28;20024;-87
2021/12/07 11:34:16;;;;;;;27.48;8.77;;;3.90;99.90;;;;;;5094432;28;20052;-87
2021/12/07 11:36:56;;;;;;;34.80;8.93;;;4.60;99.90;;;;;;5077853;28;20070;-87
2021/12/07 11:39:33;;;;;;;29.17;9.90;;;4.00;99.90;;;;;;5094792;28;21096;-88
2021/12/07 11:42:03;;;;;;;26.92;9.27;;;4.00;99.90;;;;;;5094591;28;20048;-87
2021/12/07 11:44:34;;;;;;;27.10;9.05;;;4.50;99.90;;;;;;5112366;28;20050;-87
2021/12/07 11:47:01;;;;;;;34.25;9.73;;;4.20;99.90;;;;;;5112413;28;20028;-87
2021/12/07 11:49:30;;;;;;;25.80;9.60;;;4.20;99.90;;;;;;5112421;28;20044;-87
2021/12/07 11:51:59;;;;;;;22.80;7.35;;;4.20;99.90;;;;;;5094448;28;20047;-87
2021/12/07 11:54:28;;;;;;;21.58;8.45;;;4.20;99.90;;;;;;5094318;28;20431;-86
2021/12/07 11:56:55;;;;;;;18.33;7.40;;;4.20;99.90;;;;;;5094607;28;20032;-87
2021/12/07 11:59:21;;;;;;;35.05;7.82;;;4.30;99.90;;;;;;5106852;28;20024;-88
2021/12/07 12:01:48;;;;;;;16.38;6.38;;;4.30;99.90;;;;;;5098686;28;20044;-87
2021/12/07 12:04:17;;;;;;;26.38;7.97;;;4.40;99.90;;;;;;5112027;28;20035;-87
2021/12/07 12:06:49;;;;;;;20.27;7.07;;;4.50;99.90;;;;;;5094359;28;20051;-87
2021/12/07 12:09:17;;;;;;;24.48;7.97;;;4.60;99.90;;;;;;5078119;28;20051;-88
2021/12/07 12:12:10;;;;;;;21.50;6.75;;;4.90;99.90;;;;;;5090007;28;20040;-88
2021/12/07 12:14:47;;;;;;;23.20;7.22;;;4.80;99.90;;;;;;5078115;28;20036;-88
2021/12/07 12:17:25;;;;;;;18.52;6.03;;;4.90;99.90;;;;;;5118220;28;20043;-87
2021/12/07 12:20:30;;;;;;;18.70;6.55;;;5.00;99.90;;;;;;5098272;28;20032;-87
2021/12/07 12:23:18;;;;;;;13.82;5.63;;;5.10;99.90;;;;;;5115442;28;20043;-87
2021/12/07 12:25:44;;;;;;;18.63;4.93;;;5.10;99.90;;;;;;5115268;28;20063;-87
2021/12/07 12:28:09;;;;;;;20.40;5.85;;;5.10;99.90;;;;;;5132769;28;20027;-87
2021/12/07 12:30:40;;;;;;;20.38;5.32;;;5.20;99.90;;;;;;5115031;28;20036;-87
2021/12/07 12:33:11;;;;;;;16.13;5.53;;;4.90;99.90;;;;;;5098251;28;20031;-87
2021/12/07 12:35:50;;;;;;;13.88;4.93;;;5.40;99.90;;;;;;5115465;28;20024;-87
2021/12/07 12:38:25;;;;;;;11.82;3.95;;;5.30;99.90;;;;;;5115149;28;20039;-87
2021/12/07 12:41:02;;;;;;;13.35;5.97;;;5.30;99.90;;;;;;5115065;28;20057;-87
2021/12/07 12:43:52;;;;;;;14.75;4.45;;;5.30;99.90;;;;;;5132521;28;20075;-87
2021/12/07 12:46:22;;;;;;;15.95;5.03;;;5.20;99.90;;;;;;5132900;28;20035;-87
2021/12/07 12:48:58;;;;;;;19.17;6.03;;;5.20;99.90;;;;;;5133575;28;20024;-87
2021/12/07 12:51:28;;;;;;;;;;;5.20;99.90;;;;;;5102531;28;20038;-87
2021/12/07 12:53:54;;;;;;;20.02;5.03;;;5.40;99.90;;;;;;5118795;28;20249;-87
2021/12/07 12:56:23;;;;;;;14.45;5.63;;;5.60;99.90;;;;;;5136662;28;20028;-87
2021/12/07 12:58:55;;;;;;;14.27;4.50;;;5.80;99.90;;;;;;5118819;28;20031;-87
2021/12/07 13:01:27;;;;;;;14.20;5.40;;;5.40;99.90;;;;;;5101730;28;20040;-87
2021/12/07 13:04:04;;;;;;;15.27;5.05;;;5.50;99.90;;;;;;5118784;28;20102;-87
2021/12/07 13:06:39;;;;;;;13.50;4.18;;;5.70;99.90;;;;;;5136500;28;20075;-87
2021/12/07 13:09:27;;;;;;;16.77;5.65;;;5.70;99.90;;;;;;5136754;28;20035;-87
2021/12/07 13:12:17;;;;;;;13.35;6.43;;;5.80;99.90;;;;;;5136635;28;20026;-87
2021/12/07 13:14:49;;;;;;;19.58;4.63;;;5.70;99.90;;;;;;5118887;28;20032;-88
2021/12/07 13:17:19;;;;;;;19.80;4.43;;;5.60;99.90;;;;;;5136484;28;20070;-88
2021/12/07 13:20:11;;;;;;;19.05;5.03;;;5.50;99.90;;;;;;5118608;28;20036;-88
2021/12/07 13:23:03;;;;;;;16.98;4.90;;;5.60;99.90;;;;;;5118703;28;20039;-87
2021/12/07 13:25:32;;;;;;;15.63;5.15;;;5.50;99.90;;;;;;5131580;28;20049;-87
2021/12/07 13:28:03;;;;;;;15.88;4.90;;;5.40;99.90;;;;;;5136180;28;20034;-86
2021/12/07 13:30:41;;;;;;;17.95;4.90;;;5.50;99.90;;;;;;5102610;28;20023;-86
2021/12/07 13:33:28;;;;;;;12.68;4.88;;;6.00;99.90;;;;;;5103145;28;20063;-87
2021/12/07 13:35:54;;;;;;;26.83;6.00;;;5.40;99.90;;;;;;5120535;28;20031;-89
2021/12/07 13:38:30;;;;;;;17.58;4.55;;;5.40;99.90;;;;;;5120614;28;20043;-88
2021/12/07 13:41:14;;;;;;;25.67;5.53;;;6.20;99.90;;;;;;5120686;28;20420;-88
2021/12/07 13:43:43;;;;;;;21.83;5.45;;;5.30;99.90;;;;;;5103000;28;20043;-88
2021/12/07 13:46:21;;;;;;;14.55;5.15;;;5.30;99.90;;;;;;5136571;28;20047;-87
2021/12/07 13:48:53;;;;;;;18.13;5.63;;;5.20;99.90;;;;;;5101613;28;20099;-88
2021/12/07 13:51:21;;;;;;;18.02;5.65;;;5.50;99.90;;;;;;5118278;28;20039;-87
2021/12/07 13:53:52;;;;;;;12.38;4.18;;;5.20;99.90;;;;;;5118512;28;20031;-88
2021/12/07 13:56:18;;;;;;;18.17;4.57;;;5.00;99.90;;;;;;5119170;28;20039;-88
2021/12/07 13:58:56;;;;;;;19.63;6.07;;;5.10;99.90;;;;;;5101607;28;20035;-87
2021/12/07 14:01:28;;;;;;;15.95;4.90;;;4.90;99.90;;;;;;5101908;28;20031;-87
2021/12/07 14:03:54;;;;;;;17.15;4.95;;;4.90;99.90;;;;;;5118989;28;20091;-87
2021/12/07 14:06:20;;;;;;;;;;;4.80;99.90;;;;;;5136887;28;20035;-86
2021/12/07 14:08:45;;;;;;;18.33;6.00;;;4.70;99.90;;;;;;5118493;28;19908;-87
2021/12/07 14:11:14;;;;;;;18.95;6.45;;;4.70;99.90;;;;;;5101430;28;20043;-87
2021/12/07 14:13:46;;;;;;;17.58;7.13;;;4.60;99.90;;;;;;5136188;28;20036;-87
2021/12/07 14:16:13;;;;;;;16.55;7.13;;;4.50;99.90;;;;;;5101434;28;20057;-87
2021/12/07 14:18:44;;;;;;;21.88;6.68;;;4.40;99.90;;;;;;5233822;22;20053;-86
2021/12/07 14:21:10;;;;;;;19.15;6.70;;;4.00;99.90;;;;;;5019183;28;20061;-86
2021/12/07 14:23:39;;;;;;;21.38;7.15;;;4.40;99.90;;;;;;5036793;28;20018;-87
2021/12/07 14:26:09;;;;;;;23.17;7.18;;;4.20;99.90;;;;;;5035955;28;20041;-86
2021/12/07 14:28:43;;;;;;;20.38;8.32;;;4.10;99.90;;;;;;5036078;28;20038;-87
2021/12/07 14:31:13;;;;;;;27.15;6.75;;;4.10;99.90;;;;;;5036780;28;20053;-86
2021/12/07 14:34:12;;;;;;;24.17;7.95;;;4.00;99.90;;;;;;5052618;28;20065;-87
2021/12/07 14:36:49;;;;;;;18.90;7.50;;;4.00;99.90;;;;;;5014398;28;20054;-87
2021/12/07 14:39:32;;;;;;;19.73;9.15;;;3.90;99.90;;;;;;5052042;28;20037;-87
2021/12/07 14:42:07;;;;;;;20.48;7.10;;;3.90;99.90;;;;;;5019646;28;20040;-87
2021/12/07 14:44:36;;;;;;;22.25;7.82;;;3.70;99.90;;;;;;5035485;28;20029;-85
2021/12/07 14:47:05;;;;;;;17.02;8.02;;;4.00;99.90;;;;;;5035971;28;20038;-87